createdAt,value
2016-12-06T00:00:07.355Z,18.93
2016-12-06T00:00:22.078Z,18.87
2016-12-06T00:00:36.612Z,18.84
2016-12-06T00:00:51.176Z,18.9
2016-12-06T00:01:05.769Z,18.9
2016-12-06T00:01:20.320Z,18.94
2016-12-06T00:01:34.940Z,19
2016-12-06T00:01:49.461Z,18.87
2016-12-06T00:02:03.909Z,18.84
2016-12-06T00:02:18.400Z,18.86
2016-12-06T00:02:32.909Z,18.89
2016-12-06T00:02:47.449Z,18.84
2016-12-06T00:03:02.096Z,18.84
2016-12-06T00:03:16.704Z,18.84
2016-12-06T00:03:31.224Z,18.89
2016-12-06T00:03:45.836Z,18.78
2016-12-06T00:04:00.370Z,18.82
2016-12-06T00:04:14.991Z,18.84
2016-12-06T00:04:29.459Z,18.81
2016-12-06T00:04:44.099Z,18.87
2016-12-06T00:04:58.649Z,18.84
2016-12-06T00:05:13.313Z,18.9
2016-12-06T00:05:27.903Z,18.87
2016-12-06T00:05:42.543Z,18.87
2016-12-06T00:05:57.052Z,18.86
2016-12-06T00:06:11.607Z,18.87
2016-12-06T00:06:26.130Z,18.89
2016-12-06T00:06:40.766Z,18.91
2016-12-06T00:06:55.370Z,18.87
2016-12-06T00:07:09.882Z,18.87
2016-12-06T00:07:24.498Z,18.87
2016-12-06T00:07:38.996Z,18.87
2016-12-06T00:07:53.735Z,18.87
2016-12-06T00:08:08.343Z,18.89
2016-12-06T00:08:22.857Z,18.87
2016-12-06T00:08:37.488Z,18.86
2016-12-06T00:08:52.054Z,18.82
2016-12-06T00:09:06.584Z,18.81
2016-12-06T00:09:21.175Z,18.9
2016-12-06T00:09:35.894Z,18.9
2016-12-06T00:09:50.488Z,18.86
2016-12-06T00:10:05.083Z,18.9
2016-12-06T00:10:19.629Z,18.96
2016-12-06T00:10:34.287Z,18.91
2016-12-06T00:10:48.829Z,18.99
2016-12-06T00:11:03.505Z,19.07
2016-12-06T00:11:18.062Z,18.99
2016-12-06T00:11:32.669Z,19.07
2016-12-06T00:11:47.340Z,19.05
2016-12-06T00:12:01.911Z,18.97
2016-12-06T00:12:16.482Z,19.05
2016-12-06T00:12:31.020Z,19.06
2016-12-06T00:12:45.511Z,19.05
2016-12-06T00:13:00.119Z,19.05
2016-12-06T00:13:14.608Z,18.97
2016-12-06T00:13:29.177Z,18.96
2016-12-06T00:13:43.842Z,19.05
2016-12-06T00:13:58.683Z,19.1
2016-12-06T00:14:13.585Z,18.96
2016-12-06T00:14:28.469Z,18.97
2016-12-06T00:14:43.238Z,19
2016-12-06T00:14:57.900Z,19.02
2016-12-06T00:15:12.607Z,19.02
2016-12-06T00:15:27.090Z,19
2016-12-06T00:15:41.792Z,19.06
2016-12-06T00:15:56.400Z,19.05
2016-12-06T00:16:10.893Z,19
2016-12-06T00:16:25.420Z,19.1
2016-12-06T00:16:39.830Z,19.02
2016-12-06T00:16:54.307Z,19.02
2016-12-06T00:17:08.744Z,18.99
2016-12-06T00:17:23.374Z,19
2016-12-06T00:17:37.801Z,19.02
2016-12-06T00:17:52.401Z,19.02
2016-12-06T00:18:07.140Z,19
2016-12-06T00:18:21.668Z,19
2016-12-06T00:18:36.074Z,19
2016-12-06T00:18:50.634Z,18.9
2016-12-06T00:19:05.438Z,19.07
2016-12-06T00:19:20.174Z,19.02
2016-12-06T00:19:34.934Z,19.06
2016-12-06T00:19:49.641Z,19.02
2016-12-06T00:20:04.229Z,19.05
2016-12-06T00:20:18.836Z,19
2016-12-06T00:20:33.444Z,19.05
2016-12-06T00:20:48.030Z,19
2016-12-06T00:21:02.505Z,19.06
2016-12-06T00:21:16.924Z,19.05
2016-12-06T00:21:31.446Z,18.99
2016-12-06T00:21:46.174Z,18.9
2016-12-06T00:22:00.830Z,18.94
2016-12-06T00:22:15.326Z,18.96
2016-12-06T00:22:29.906Z,18.96
2016-12-06T00:22:44.354Z,18.97
2016-12-06T00:22:58.832Z,18.94
2016-12-06T00:23:13.353Z,18.9
2016-12-06T00:23:27.830Z,18.96
2016-12-06T00:23:42.271Z,18.91
2016-12-06T00:23:56.784Z,18.96
2016-12-06T00:24:11.422Z,18.93
2016-12-06T00:24:26.000Z,18.91
2016-12-06T00:24:40.624Z,18.99
2016-12-06T00:24:55.278Z,18.97
2016-12-06T00:25:09.972Z,18.99
2016-12-06T00:25:24.439Z,19.06
2016-12-06T00:25:39.097Z,19.07
2016-12-06T00:25:53.709Z,18.96
2016-12-06T00:26:08.290Z,19.12
2016-12-06T00:26:22.740Z,19.16
2016-12-06T00:26:37.464Z,19.1
2016-12-06T00:26:51.846Z,19.09
2016-12-06T00:27:06.481Z,19.16
2016-12-06T00:27:21.069Z,19.23
2016-12-06T00:27:35.671Z,19.24
2016-12-06T00:27:50.522Z,19.24
2016-12-06T00:28:04.958Z,19.24
2016-12-06T00:28:19.500Z,19.23
2016-12-06T00:28:34.001Z,19.23
2016-12-06T00:28:48.493Z,19.19
2016-12-06T00:29:03.049Z,19.23
2016-12-06T00:29:18.018Z,19.23
2016-12-06T00:29:32.703Z,19.16
2016-12-06T00:29:47.304Z,19.23
2016-12-06T00:30:02.054Z,19.09
2016-12-06T00:30:16.679Z,19.2
2016-12-06T00:30:31.248Z,19.15
2016-12-06T00:30:45.904Z,19.16
2016-12-06T00:31:00.430Z,19.13
2016-12-06T00:31:14.942Z,19.19
2016-12-06T00:31:29.556Z,19.19
2016-12-06T00:31:44.137Z,19.23
2016-12-06T00:31:58.656Z,19.15
2016-12-06T00:32:13.254Z,19.2
2016-12-06T00:32:27.758Z,19.12
2016-12-06T00:32:42.118Z,19.19
2016-12-06T00:32:56.686Z,19.15
2016-12-06T00:33:11.186Z,19.15
2016-12-06T00:33:25.512Z,19.1
2016-12-06T00:33:40.037Z,19.02
2016-12-06T00:33:54.488Z,19.12
2016-12-06T00:34:09.113Z,19.07
2016-12-06T00:34:23.712Z,19.1
2016-12-06T00:34:38.156Z,19.07
2016-12-06T00:34:52.797Z,19.07
2016-12-06T00:35:07.338Z,19.1
2016-12-06T00:35:21.878Z,18.97
2016-12-06T00:35:36.235Z,19.02
2016-12-06T00:35:50.709Z,19.07
2016-12-06T00:36:05.138Z,19.12
2016-12-06T00:36:19.592Z,19.05
2016-12-06T00:36:34.007Z,19.05
2016-12-06T00:36:48.451Z,19.05
2016-12-06T00:37:02.901Z,19.06
2016-12-06T00:37:17.245Z,19.07
2016-12-06T00:37:31.664Z,19.06
2016-12-06T00:37:46.036Z,18.96
2016-12-06T00:38:00.389Z,19.06
2016-12-06T00:38:14.793Z,19.02
2016-12-06T00:38:29.266Z,19.09
2016-12-06T00:38:43.693Z,19
2016-12-06T00:38:58.153Z,19.09
2016-12-06T00:39:12.616Z,19.06
2016-12-06T00:39:27.012Z,18.96
2016-12-06T00:39:41.354Z,19.05
2016-12-06T00:39:55.754Z,19
2016-12-06T00:40:10.168Z,18.97
2016-12-06T00:40:24.643Z,18.94
2016-12-06T00:40:39.053Z,18.97
2016-12-06T00:40:53.430Z,18.93
2016-12-06T00:41:07.871Z,18.9
2016-12-06T00:41:22.271Z,18.84
2016-12-06T00:41:36.674Z,18.81
2016-12-06T00:41:51.140Z,18.86
2016-12-06T00:42:05.464Z,18.87
2016-12-06T00:42:19.842Z,18.82
2016-12-06T00:42:34.239Z,18.84
2016-12-06T00:42:48.633Z,18.78
2016-12-06T00:43:03.065Z,18.78
2016-12-06T00:43:17.431Z,18.89
2016-12-06T00:43:31.829Z,18.79
2016-12-06T00:43:46.132Z,18.79
2016-12-06T00:44:00.529Z,18.81
2016-12-06T00:44:14.959Z,18.86
2016-12-06T00:44:29.666Z,18.82
2016-12-06T00:44:44.113Z,18.69
2016-12-06T00:44:58.566Z,18.72
2016-12-06T00:45:13.027Z,18.71
2016-12-06T00:45:27.415Z,18.72
2016-12-06T00:45:41.827Z,18.72
2016-12-06T00:45:56.299Z,18.71
2016-12-06T00:46:10.763Z,18.66
2016-12-06T00:46:25.204Z,18.69
2016-12-06T00:46:39.578Z,18.65
2016-12-06T00:46:54.023Z,18.57
2016-12-06T00:47:08.490Z,18.54
2016-12-06T00:47:22.905Z,18.6
2016-12-06T00:47:37.347Z,18.61
2016-12-06T00:47:51.698Z,18.59
2016-12-06T00:48:06.044Z,18.65
2016-12-06T00:48:20.530Z,18.56
2016-12-06T00:48:34.939Z,18.57
2016-12-06T00:48:49.369Z,18.68
2016-12-06T00:49:03.775Z,18.72
2016-12-06T00:49:18.150Z,18.69
2016-12-06T00:49:32.558Z,18.69
2016-12-06T00:49:47.008Z,18.72
2016-12-06T00:50:01.375Z,18.68
2016-12-06T00:50:15.772Z,18.69
2016-12-06T00:50:30.219Z,18.68
2016-12-06T00:50:44.581Z,18.69
2016-12-06T00:50:58.994Z,18.72
2016-12-06T00:51:13.379Z,18.74
2016-12-06T00:51:27.735Z,18.72
2016-12-06T00:51:42.078Z,18.69
2016-12-06T00:51:56.484Z,18.72
2016-12-06T00:52:10.929Z,18.72
2016-12-06T00:52:25.378Z,18.65
2016-12-06T00:52:39.716Z,18.66
2016-12-06T00:52:54.105Z,18.66
2016-12-06T00:53:08.537Z,18.69
2016-12-06T00:53:22.907Z,18.63
2016-12-06T00:53:37.304Z,18.6
2016-12-06T00:53:51.781Z,18.57
2016-12-06T00:54:06.216Z,18.57
2016-12-06T00:54:20.646Z,18.6
2016-12-06T00:54:35.136Z,18.59
2016-12-06T00:54:49.584Z,18.6
2016-12-06T00:55:03.946Z,18.59
2016-12-06T00:55:18.310Z,18.59
2016-12-06T00:55:32.684Z,18.61
2016-12-06T00:55:46.980Z,18.54
2016-12-06T00:56:01.337Z,18.5
2016-12-06T00:56:15.805Z,18.61
2016-12-06T00:56:30.212Z,18.47
2016-12-06T00:56:44.730Z,18.56
2016-12-06T00:56:59.277Z,18.49
2016-12-06T00:57:13.720Z,18.51
2016-12-06T00:57:28.133Z,18.57
2016-12-06T00:57:42.587Z,18.47
2016-12-06T00:57:56.985Z,18.6
2016-12-06T00:58:11.347Z,18.45
2016-12-06T00:58:25.719Z,18.45
2016-12-06T00:58:40.092Z,18.45
2016-12-06T00:58:54.544Z,18.44
2016-12-06T00:59:08.962Z,18.42
2016-12-06T00:59:23.355Z,18.41
2016-12-06T00:59:38.131Z,18.41
2016-12-06T00:59:52.587Z,18.47
2016-12-06T01:00:06.999Z,18.49
2016-12-06T01:00:21.444Z,18.45
2016-12-06T01:00:35.856Z,18.41
2016-12-06T01:00:50.300Z,18.45
2016-12-06T01:01:04.755Z,18.53
2016-12-06T01:01:19.207Z,18.49
2016-12-06T01:01:33.668Z,18.41
2016-12-06T01:01:48.124Z,18.44
2016-12-06T01:02:02.501Z,18.57
2016-12-06T01:02:16.906Z,18.5
2016-12-06T01:02:31.368Z,18.61
2016-12-06T01:02:45.737Z,18.53
2016-12-06T01:03:00.142Z,18.63
2016-12-06T01:03:14.510Z,18.63
2016-12-06T01:03:28.983Z,18.56
2016-12-06T01:03:43.418Z,18.6
2016-12-06T01:03:57.847Z,18.6
2016-12-06T01:04:12.229Z,18.59
2016-12-06T01:04:26.592Z,18.57
2016-12-06T01:04:41.057Z,18.6
2016-12-06T01:04:55.533Z,18.53
2016-12-06T01:05:09.931Z,18.54
2016-12-06T01:05:24.275Z,18.57
2016-12-06T01:05:38.713Z,18.57
2016-12-06T01:05:53.145Z,18.59
2016-12-06T01:06:07.531Z,18.53
2016-12-06T01:06:21.938Z,18.57
2016-12-06T01:06:36.340Z,18.61
2016-12-06T01:06:50.716Z,18.59
2016-12-06T01:07:05.105Z,18.57
2016-12-06T01:07:19.607Z,18.57
2016-12-06T01:07:33.959Z,18.59
2016-12-06T01:07:48.344Z,18.56
2016-12-06T01:08:02.655Z,18.56
2016-12-06T01:08:17.119Z,18.56
2016-12-06T01:08:31.565Z,18.65
2016-12-06T01:08:46.008Z,18.59
2016-12-06T01:09:00.491Z,18.54
2016-12-06T01:09:14.889Z,18.54
2016-12-06T01:09:29.350Z,18.59
2016-12-06T01:09:43.738Z,18.56
2016-12-06T01:09:58.177Z,18.65
2016-12-06T01:10:12.559Z,18.61
2016-12-06T01:10:26.915Z,18.59
2016-12-06T01:10:41.326Z,18.68
2016-12-06T01:10:55.718Z,18.66
2016-12-06T01:11:10.031Z,18.65
2016-12-06T01:11:24.400Z,18.71
2016-12-06T01:11:38.842Z,18.68
2016-12-06T01:11:53.314Z,18.69
2016-12-06T01:12:07.700Z,18.68
2016-12-06T01:12:22.043Z,18.66
2016-12-06T01:12:36.462Z,18.69
2016-12-06T01:12:50.898Z,18.69
2016-12-06T01:13:05.325Z,18.66
2016-12-06T01:13:19.701Z,18.69
2016-12-06T01:13:34.136Z,18.69
2016-12-06T01:13:48.617Z,18.66
2016-12-06T01:14:03.081Z,18.68
2016-12-06T01:14:17.497Z,18.72
2016-12-06T01:14:31.918Z,18.69
2016-12-06T01:14:46.563Z,18.66
2016-12-06T01:15:00.996Z,18.75
2016-12-06T01:15:15.423Z,18.74
2016-12-06T01:15:29.802Z,18.79
2016-12-06T01:15:44.206Z,18.72
2016-12-06T01:15:58.598Z,18.76
2016-12-06T01:16:12.991Z,18.78
2016-12-06T01:16:27.358Z,18.75
2016-12-06T01:16:41.730Z,18.69
2016-12-06T01:16:56.081Z,18.66
2016-12-06T01:17:10.453Z,18.81
2016-12-06T01:17:24.846Z,18.78
2016-12-06T01:17:39.244Z,18.71
2016-12-06T01:17:53.629Z,18.72
2016-12-06T01:18:07.987Z,18.75
2016-12-06T01:18:22.336Z,18.75
2016-12-06T01:18:36.688Z,18.72
2016-12-06T01:18:51.100Z,18.78
2016-12-06T01:19:05.485Z,18.71
2016-12-06T01:19:19.908Z,18.76
2016-12-06T01:19:34.322Z,18.79
2016-12-06T01:19:48.710Z,18.81
2016-12-06T01:20:03.048Z,18.71
2016-12-06T01:20:17.415Z,18.65
2016-12-06T01:20:31.811Z,18.72
2016-12-06T01:20:46.178Z,18.69
2016-12-06T01:21:00.559Z,18.72
2016-12-06T01:21:14.984Z,18.72
2016-12-06T01:21:29.387Z,18.74
2016-12-06T01:21:43.794Z,18.72
2016-12-06T01:21:58.190Z,18.74
2016-12-06T01:22:12.546Z,18.72
2016-12-06T01:22:27.019Z,18.74
2016-12-06T01:22:41.409Z,18.68
2016-12-06T01:22:55.749Z,18.75
2016-12-06T01:23:10.139Z,18.72
2016-12-06T01:23:24.598Z,18.75
2016-12-06T01:23:39.027Z,18.76
2016-12-06T01:23:53.395Z,18.66
2016-12-06T01:24:07.851Z,18.68
2016-12-06T01:24:22.304Z,18.78
2016-12-06T01:24:36.743Z,18.81
2016-12-06T01:24:51.127Z,18.81
2016-12-06T01:25:05.529Z,18.78
2016-12-06T01:25:19.881Z,18.76
2016-12-06T01:25:34.272Z,18.74
2016-12-06T01:25:48.637Z,18.65
2016-12-06T01:26:03.093Z,18.68
2016-12-06T01:26:17.466Z,18.74
2016-12-06T01:26:31.886Z,18.71
2016-12-06T01:26:46.316Z,18.75
2016-12-06T01:27:00.704Z,18.65
2016-12-06T01:27:15.069Z,18.74
2016-12-06T01:27:29.390Z,18.75
2016-12-06T01:27:43.755Z,18.72
2016-12-06T01:27:58.143Z,18.69
2016-12-06T01:28:12.538Z,18.76
2016-12-06T01:28:26.903Z,18.75
2016-12-06T01:28:41.308Z,18.66
2016-12-06T01:28:55.729Z,18.69
2016-12-06T01:29:10.112Z,18.81
2016-12-06T01:29:24.522Z,18.71
2016-12-06T01:29:39.006Z,18.78
2016-12-06T01:29:53.715Z,18.87
2016-12-06T01:30:08.123Z,18.79
2016-12-06T01:30:22.531Z,18.82
2016-12-06T01:30:36.923Z,18.9
2016-12-06T01:30:51.333Z,18.89
2016-12-06T01:31:05.783Z,18.91
2016-12-06T01:31:20.225Z,18.97
2016-12-06T01:31:34.555Z,18.94
2016-12-06T01:31:48.961Z,18.97
2016-12-06T01:32:03.334Z,19
2016-12-06T01:32:17.710Z,19
2016-12-06T01:32:32.061Z,19.05
2016-12-06T01:32:46.533Z,19.05
2016-12-06T01:33:00.931Z,19
2016-12-06T01:33:15.361Z,19.02
2016-12-06T01:33:29.819Z,19.05
2016-12-06T01:33:44.188Z,19.02
2016-12-06T01:33:58.608Z,18.99
2016-12-06T01:34:13.177Z,19.09
2016-12-06T01:34:27.578Z,19.02
2016-12-06T01:34:41.978Z,18.93
2016-12-06T01:34:56.483Z,18.99
2016-12-06T01:35:10.914Z,18.94
2016-12-06T01:35:25.419Z,19.05
2016-12-06T01:35:39.814Z,19.02
2016-12-06T01:35:54.223Z,19.06
2016-12-06T01:36:08.650Z,19.05
2016-12-06T01:36:23.093Z,19.06
2016-12-06T01:36:37.618Z,19.15
2016-12-06T01:36:51.994Z,19.05
2016-12-06T01:37:06.569Z,19.05
2016-12-06T01:37:20.930Z,19.02
2016-12-06T01:37:35.344Z,19.09
2016-12-06T01:37:49.799Z,19.06
2016-12-06T01:38:04.181Z,19.09
2016-12-06T01:38:18.620Z,19.07
2016-12-06T01:38:33.012Z,19.1
2016-12-06T01:38:47.403Z,19
2016-12-06T01:39:01.787Z,18.99
2016-12-06T01:39:16.184Z,19.07
2016-12-06T01:39:30.643Z,19.09
2016-12-06T01:39:45.031Z,19.07
2016-12-06T01:39:59.448Z,19.02
2016-12-06T01:40:13.847Z,19.06
2016-12-06T01:40:28.289Z,18.96
2016-12-06T01:40:42.662Z,18.99
2016-12-06T01:40:57.135Z,19.05
2016-12-06T01:41:11.527Z,19.05
2016-12-06T01:41:25.935Z,19.06
2016-12-06T01:41:40.306Z,19.09
2016-12-06T01:41:54.682Z,19.06
2016-12-06T01:42:09.094Z,19
2016-12-06T01:42:23.496Z,18.89
2016-12-06T01:42:37.937Z,18.96
2016-12-06T01:42:52.363Z,19.05
2016-12-06T01:43:06.709Z,18.93
2016-12-06T01:43:21.074Z,18.91
2016-12-06T01:43:35.530Z,18.96
2016-12-06T01:43:49.945Z,18.94
2016-12-06T01:44:04.380Z,18.91
2016-12-06T01:44:18.680Z,18.96
2016-12-06T01:44:33.106Z,18.93
2016-12-06T01:44:47.492Z,18.89
2016-12-06T01:45:02.116Z,18.97
2016-12-06T01:45:16.433Z,18.93
2016-12-06T01:45:30.839Z,18.91
2016-12-06T01:45:45.302Z,18.93
2016-12-06T01:45:59.759Z,18.87
2016-12-06T01:46:14.122Z,18.91
2016-12-06T01:46:28.464Z,18.9
2016-12-06T01:46:42.905Z,18.81
2016-12-06T01:46:57.269Z,18.9
2016-12-06T01:47:11.694Z,18.82
2016-12-06T01:47:26.114Z,18.81
2016-12-06T01:47:40.534Z,18.75
2016-12-06T01:47:55.019Z,18.86
2016-12-06T01:48:09.394Z,18.89
2016-12-06T01:48:23.780Z,18.87
2016-12-06T01:48:38.174Z,18.82
2016-12-06T01:48:52.616Z,18.79
2016-12-06T01:49:07.009Z,18.79
2016-12-06T01:49:21.359Z,18.81
2016-12-06T01:49:35.688Z,18.81
2016-12-06T01:49:50.060Z,18.78
2016-12-06T01:50:04.439Z,18.82
2016-12-06T01:50:18.824Z,18.79
2016-12-06T01:50:33.183Z,18.76
2016-12-06T01:50:47.569Z,18.79
2016-12-06T01:51:01.959Z,18.78
2016-12-06T01:51:16.293Z,18.71
2016-12-06T01:51:30.678Z,18.69
2016-12-06T01:51:45.071Z,18.69
2016-12-06T01:51:59.515Z,18.69
2016-12-06T01:52:13.898Z,18.65
2016-12-06T01:52:28.274Z,18.57
2016-12-06T01:52:42.645Z,18.69
2016-12-06T01:52:57.101Z,18.6
2016-12-06T01:53:11.491Z,18.57
2016-12-06T01:53:25.959Z,18.54
2016-12-06T01:53:40.356Z,18.53
2016-12-06T01:53:54.804Z,18.53
2016-12-06T01:54:09.211Z,18.45
2016-12-06T01:54:23.568Z,18.5
2016-12-06T01:54:37.962Z,18.53
2016-12-06T01:54:52.415Z,18.54
2016-12-06T01:55:06.796Z,18.49
2016-12-06T01:55:21.172Z,18.59
2016-12-06T01:55:35.549Z,18.54
2016-12-06T01:55:49.979Z,18.51
2016-12-06T01:56:04.364Z,18.44
2016-12-06T01:56:18.801Z,18.51
2016-12-06T01:56:33.202Z,18.53
2016-12-06T01:56:47.582Z,18.49
2016-12-06T01:57:01.957Z,18.54
2016-12-06T01:57:16.366Z,18.56
2016-12-06T01:57:30.815Z,18.61
2016-12-06T01:57:45.307Z,18.59
2016-12-06T01:57:59.756Z,18.6
2016-12-06T01:58:14.193Z,18.6
2016-12-06T01:58:28.542Z,18.56
2016-12-06T01:58:42.970Z,18.53
2016-12-06T01:58:57.426Z,18.61
2016-12-06T01:59:11.855Z,18.65
2016-12-06T01:59:26.250Z,18.6
2016-12-06T01:59:40.655Z,18.72
2016-12-06T01:59:55.002Z,18.6
2016-12-06T02:00:09.712Z,18.59
2016-12-06T02:00:24.109Z,18.63
2016-12-06T02:00:38.454Z,18.57
2016-12-06T02:00:52.894Z,18.5
2016-12-06T02:01:07.331Z,18.57
2016-12-06T02:01:21.687Z,18.56
2016-12-06T02:01:36.090Z,18.54
2016-12-06T02:01:50.526Z,18.57
2016-12-06T02:02:04.892Z,18.56
2016-12-06T02:02:19.250Z,18.57
2016-12-06T02:02:33.753Z,18.54
2016-12-06T02:02:48.070Z,18.56
2016-12-06T02:03:02.487Z,18.61
2016-12-06T02:03:16.844Z,18.68
2016-12-06T02:03:31.216Z,18.66
2016-12-06T02:03:45.602Z,18.68
2016-12-06T02:04:00.088Z,18.68
2016-12-06T02:04:14.511Z,18.56
2016-12-06T02:04:28.945Z,18.72
2016-12-06T02:04:43.385Z,18.65
2016-12-06T02:04:57.761Z,18.61
2016-12-06T02:05:12.105Z,18.57
2016-12-06T02:05:26.517Z,18.47
2016-12-06T02:05:40.890Z,18.57
2016-12-06T02:05:55.223Z,18.42
2016-12-06T02:06:09.569Z,18.47
2016-12-06T02:06:23.954Z,18.41
2016-12-06T02:06:38.368Z,18.45
2016-12-06T02:06:52.805Z,18.42
2016-12-06T02:07:07.197Z,18.42
2016-12-06T02:07:21.566Z,18.42
2016-12-06T02:07:36.008Z,18.53
2016-12-06T02:07:50.374Z,18.44
2016-12-06T02:08:04.726Z,18.42
2016-12-06T02:08:19.183Z,18.49
2016-12-06T02:08:33.547Z,18.42
2016-12-06T02:08:48.000Z,18.39
2016-12-06T02:09:02.393Z,18.41
2016-12-06T02:09:16.775Z,18.45
2016-12-06T02:09:31.185Z,18.44
2016-12-06T02:09:45.544Z,18.39
2016-12-06T02:09:59.961Z,18.47
2016-12-06T02:10:14.425Z,18.39
2016-12-06T02:10:28.848Z,18.44
2016-12-06T02:10:43.185Z,18.51
2016-12-06T02:10:57.668Z,18.44
2016-12-06T02:11:12.103Z,18.44
2016-12-06T02:11:26.535Z,18.47
2016-12-06T02:11:40.911Z,18.57
2016-12-06T02:11:55.266Z,18.59
2016-12-06T02:12:09.682Z,18.68
2016-12-06T02:12:23.993Z,18.6
2016-12-06T02:12:38.384Z,18.59
2016-12-06T02:12:52.753Z,18.53
2016-12-06T02:13:07.200Z,18.61
2016-12-06T02:13:21.614Z,18.56
2016-12-06T02:13:36.028Z,18.57
2016-12-06T02:13:50.465Z,18.57
2016-12-06T02:14:04.818Z,18.59
2016-12-06T02:14:19.259Z,18.59
2016-12-06T02:14:33.680Z,18.53
2016-12-06T02:14:48.046Z,18.59
2016-12-06T02:15:02.470Z,18.53
2016-12-06T02:15:17.026Z,18.59
2016-12-06T02:15:31.414Z,18.59
2016-12-06T02:15:45.764Z,18.56
2016-12-06T02:16:00.155Z,18.47
2016-12-06T02:16:14.573Z,18.44
2016-12-06T02:16:29.040Z,18.49
2016-12-06T02:16:43.482Z,18.45
2016-12-06T02:16:57.798Z,18.38
2016-12-06T02:17:12.167Z,18.42
2016-12-06T02:17:26.620Z,18.41
2016-12-06T02:17:41.040Z,18.44
2016-12-06T02:17:55.465Z,18.39
2016-12-06T02:18:09.887Z,18.38
2016-12-06T02:18:24.301Z,18.38
2016-12-06T02:18:38.797Z,18.39
2016-12-06T02:18:53.295Z,18.44
2016-12-06T02:19:07.680Z,18.44
2016-12-06T02:19:22.053Z,18.39
2016-12-06T02:19:36.373Z,18.31
2016-12-06T02:19:50.807Z,18.41
2016-12-06T02:20:05.137Z,18.39
2016-12-06T02:20:19.497Z,18.36
2016-12-06T02:20:33.952Z,18.34
2016-12-06T02:20:48.353Z,18.34
2016-12-06T02:21:02.823Z,18.32
2016-12-06T02:21:17.220Z,18.34
2016-12-06T02:21:31.597Z,18.36
2016-12-06T02:21:45.996Z,18.34
2016-12-06T02:22:00.556Z,18.36
2016-12-06T02:22:14.929Z,18.29
2016-12-06T02:22:29.389Z,18.32
2016-12-06T02:22:43.774Z,18.29
2016-12-06T02:22:58.221Z,18.27
2016-12-06T02:23:12.660Z,18.29
2016-12-06T02:23:27.100Z,18.29
2016-12-06T02:23:41.478Z,18.27
2016-12-06T02:23:55.913Z,18.29
2016-12-06T02:24:10.334Z,18.27
2016-12-06T02:24:24.800Z,18.19
2016-12-06T02:24:39.190Z,18.24
2016-12-06T02:24:53.609Z,18.23
2016-12-06T02:25:08.025Z,18.26
2016-12-06T02:25:22.452Z,18.24
2016-12-06T02:25:36.846Z,18.27
2016-12-06T02:25:51.298Z,18.26
2016-12-06T02:26:05.734Z,18.19
2016-12-06T02:26:20.176Z,18.26
2016-12-06T02:26:34.589Z,18.21
2016-12-06T02:26:48.932Z,18.24
2016-12-06T02:27:03.347Z,18.24
2016-12-06T02:27:17.798Z,18.24
2016-12-06T02:27:32.162Z,18.26
2016-12-06T02:27:46.460Z,18.27
2016-12-06T02:28:00.783Z,18.27
2016-12-06T02:28:15.218Z,18.26
2016-12-06T02:28:29.589Z,18.24
2016-12-06T02:28:44.015Z,18.29
2016-12-06T02:28:58.360Z,18.29
2016-12-06T02:29:12.771Z,18.24
2016-12-06T02:29:27.226Z,18.26
2016-12-06T02:29:41.656Z,18.26
2016-12-06T02:29:56.117Z,18.17
2016-12-06T02:30:10.523Z,18.17
2016-12-06T02:30:25.218Z,18.24
2016-12-06T02:30:39.603Z,18.21
2016-12-06T02:30:54.112Z,18.14
2016-12-06T02:31:08.471Z,18.16
2016-12-06T02:31:22.986Z,18.16
2016-12-06T02:31:37.355Z,18.14
2016-12-06T02:31:51.704Z,18.13
2016-12-06T02:32:06.087Z,18.08
2016-12-06T02:32:20.453Z,18.14
2016-12-06T02:32:34.871Z,18.14
2016-12-06T02:32:49.251Z,18.08
2016-12-06T02:33:03.611Z,18.13
2016-12-06T02:33:18.036Z,18.08
2016-12-06T02:33:32.464Z,18.1
2016-12-06T02:33:46.936Z,18.05
2016-12-06T02:34:01.368Z,18.02
2016-12-06T02:34:15.808Z,18.08
2016-12-06T02:34:30.179Z,18.19
2016-12-06T02:34:44.646Z,18.11
2016-12-06T02:34:59.093Z,18.08
2016-12-06T02:35:13.488Z,18.14
2016-12-06T02:35:27.852Z,18.13
2016-12-06T02:35:42.198Z,18.13
2016-12-06T02:35:56.578Z,18.19
2016-12-06T02:36:10.997Z,18.2
2016-12-06T02:36:25.421Z,18.21
2016-12-06T02:36:39.822Z,18.23
2016-12-06T02:36:54.115Z,18.21
2016-12-06T02:37:08.543Z,18.2
2016-12-06T02:37:22.926Z,18.2
2016-12-06T02:37:37.256Z,18.23
2016-12-06T02:37:51.632Z,18.19
2016-12-06T02:38:06.006Z,18.21
2016-12-06T02:38:20.315Z,18.24
2016-12-06T02:38:34.611Z,18.27
2016-12-06T02:38:49.038Z,18.24
2016-12-06T02:39:03.473Z,18.38
2016-12-06T02:39:17.762Z,18.31
2016-12-06T02:39:32.125Z,18.36
2016-12-06T02:39:46.513Z,18.38
2016-12-06T02:40:00.900Z,18.34
2016-12-06T02:40:15.369Z,18.39
2016-12-06T02:40:29.766Z,18.32
2016-12-06T02:40:44.176Z,18.32
2016-12-06T02:40:58.558Z,18.29
2016-12-06T02:41:12.928Z,18.36
2016-12-06T02:41:27.262Z,18.44
2016-12-06T02:41:41.708Z,18.36
2016-12-06T02:41:56.203Z,18.49
2016-12-06T02:42:10.667Z,18.38
2016-12-06T02:42:25.056Z,18.35
2016-12-06T02:42:39.475Z,18.44
2016-12-06T02:42:53.887Z,18.38
2016-12-06T02:43:08.270Z,18.34
2016-12-06T02:43:22.692Z,18.44
2016-12-06T02:43:37.137Z,18.34
2016-12-06T02:43:51.539Z,18.41
2016-12-06T02:44:05.963Z,18.36
2016-12-06T02:44:20.353Z,18.35
2016-12-06T02:44:34.752Z,18.27
2016-12-06T02:44:49.149Z,18.29
2016-12-06T02:45:03.545Z,18.26
2016-12-06T02:45:17.957Z,18.31
2016-12-06T02:45:32.668Z,18.26
2016-12-06T02:45:47.059Z,18.27
2016-12-06T02:46:01.480Z,18.31
2016-12-06T02:46:15.789Z,18.24
2016-12-06T02:46:30.208Z,18.2
2016-12-06T02:46:44.584Z,18.24
2016-12-06T02:46:59.015Z,18.23
2016-12-06T02:47:13.371Z,18.23
2016-12-06T02:47:27.747Z,18.27
2016-12-06T02:47:42.185Z,18.23
2016-12-06T02:47:56.785Z,18.21
2016-12-06T02:48:11.198Z,18.21
2016-12-06T02:48:25.656Z,18.27
2016-12-06T02:48:40.099Z,18.26
2016-12-06T02:48:54.474Z,18.27
2016-12-06T02:49:08.913Z,18.21
2016-12-06T02:49:23.334Z,18.21
2016-12-06T02:49:37.732Z,18.26
2016-12-06T02:49:52.220Z,18.27
2016-12-06T02:50:06.589Z,18.31
2016-12-06T02:50:21.024Z,18.27
2016-12-06T02:50:35.400Z,18.29
2016-12-06T02:50:49.781Z,18.21
2016-12-06T02:51:04.082Z,18.24
2016-12-06T02:51:18.567Z,18.24
2016-12-06T02:51:32.951Z,18.27
2016-12-06T02:51:47.339Z,18.29
2016-12-06T02:52:01.716Z,18.27
2016-12-06T02:52:16.107Z,18.23
2016-12-06T02:52:30.499Z,18.23
2016-12-06T02:52:44.945Z,18.32
2016-12-06T02:52:59.365Z,18.27
2016-12-06T02:53:13.803Z,18.27
2016-12-06T02:53:28.196Z,18.27
2016-12-06T02:53:42.621Z,18.24
2016-12-06T02:53:56.950Z,18.24
2016-12-06T02:54:11.401Z,18.29
2016-12-06T02:54:25.805Z,18.27
2016-12-06T02:54:40.178Z,18.26
2016-12-06T02:54:54.720Z,18.27
2016-12-06T02:55:09.058Z,18.29
2016-12-06T02:55:23.455Z,18.29
2016-12-06T02:55:37.940Z,18.29
2016-12-06T02:55:52.351Z,18.26
2016-12-06T02:56:06.813Z,18.29
2016-12-06T02:56:21.212Z,18.26
2016-12-06T02:56:35.594Z,18.29
2016-12-06T02:56:49.976Z,18.31
2016-12-06T02:57:04.415Z,18.29
2016-12-06T02:57:18.820Z,18.32
2016-12-06T02:57:33.186Z,18.24
2016-12-06T02:57:47.622Z,18.24
2016-12-06T02:58:02.041Z,18.27
2016-12-06T02:58:16.419Z,18.27
2016-12-06T02:58:30.806Z,18.24
2016-12-06T02:58:45.190Z,18.26
2016-12-06T02:58:59.485Z,18.27
2016-12-06T02:59:13.958Z,18.24
2016-12-06T02:59:28.433Z,18.26
2016-12-06T02:59:42.913Z,18.29
2016-12-06T02:59:57.240Z,18.23
2016-12-06T03:00:11.741Z,18.26
2016-12-06T03:00:26.191Z,18.24
2016-12-06T03:00:41.008Z,18.23
2016-12-06T03:00:55.376Z,18.32
2016-12-06T03:01:09.769Z,18.26
2016-12-06T03:01:24.252Z,18.24
2016-12-06T03:01:38.696Z,18.29
2016-12-06T03:01:53.094Z,18.2
2016-12-06T03:02:07.500Z,18.24
2016-12-06T03:02:21.915Z,18.26
2016-12-06T03:02:36.261Z,18.26
2016-12-06T03:02:50.736Z,18.27
2016-12-06T03:03:05.112Z,18.26
2016-12-06T03:03:19.593Z,18.26
2016-12-06T03:03:34.030Z,18.24
2016-12-06T03:03:48.450Z,18.32
2016-12-06T03:04:02.819Z,18.31
2016-12-06T03:04:17.283Z,18.31
2016-12-06T03:04:31.738Z,18.34
2016-12-06T03:04:46.184Z,18.31
2016-12-06T03:05:00.587Z,18.34
2016-12-06T03:05:15.008Z,18.27
2016-12-06T03:05:29.367Z,18.38
2016-12-06T03:05:43.812Z,18.38
2016-12-06T03:05:58.224Z,18.42
2016-12-06T03:06:12.639Z,18.38
2016-12-06T03:06:27.153Z,18.5
2016-12-06T03:06:41.603Z,18.45